sensor_id;sensor_type;location;lat;lon;timestamp;temperature;humidity
20831;DHT22;10576;53.556;9.868;2023-05-10T00:01:05;14.00;95.70
20831;DHT22;10576;53.556;9.868;2023-05-10T00:03:30;13.90;96.50
20831;DHT22;10576;53.556;9.868;2023-05-10T00:05:56;14.20;96.90
20831;DHT22;10576;53.556;9.868;2023-05-10T00:08:22;14.20;97.30
20831;DHT22;10576;53.556;9.868;2023-05-10T00:10:48;14.00;97.60
20831;DHT22;10576;53.556;9.868;2023-05-10T00:13:14;13.80;97.40
20831;DHT22;10576;53.556;9.868;2023-05-10T00:15:39;14.10;98.50
20831;DHT22;10576;53.556;9.868;2023-05-10T00:18:05;13.70;99.10
20831;DHT22;10576;53.556;9.868;2023-05-10T00:20:31;13.70;99.20
20831;DHT22;10576;53.556;9.868;2023-05-10T00:22:56;14.10;99.90
20831;DHT22;10576;53.556;9.868;2023-05-10T00:25:22;13.60;99.90
20831;DHT22;10576;53.556;9.868;2023-05-10T00:27:48;14.00;99.90
20831;DHT22;10576;53.556;9.868;2023-05-10T00:30:13;13.90;99.90
20831;DHT22;10576;53.556;9.868;2023-05-10T00:32:39;13.60;99.90
20831;DHT22;10576;53.556;9.868;2023-05-10T00:35:05;13.60;99.90
20831;DHT22;10576;53.556;9.868;2023-05-10T00:37:31;13.90;99.90
20831;DHT22;10576;53.556;9.868;2023-05-10T00:39:57;13.80;99.90
20831;DHT22;10576;53.556;9.868;2023-05-10T00:42:22;13.60;99.90
20831;DHT22;10576;53.556;9.868;2023-05-10T00:44:48;13.70;99.90
20831;DHT22;10576;53.556;9.868;2023-05-10T00:47:14;13.50;99.90
20831;DHT22;10576;53.556;9.868;2023-05-10T00:49:41;13.40;99.90
20831;DHT22;10576;53.556;9.868;2023-05-10T00:52:07;13.30;99.90
20831;DHT22;10576;53.556;9.868;2023-05-10T00:54:33;13.40;99.90
20831;DHT22;10576;53.556;9.868;2023-05-10T00:56:59;13.20;99.90
20831;DHT22;10576;53.556;9.868;2023-05-10T00:59:24;13.30;99.90
20831;DHT22;10576;53.556;9.868;2023-05-10T01:01:50;13.40;99.90
20831;DHT22;10576;53.556;9.868;2023-05-10T01:04:17;13.20;99.90
20831;DHT22;10576;53.556;9.868;2023-05-10T01:06:43;13.40;99.90
20831;DHT22;10576;53.556;9.868;2023-05-10T01:09:09;13.30;99.90
20831;DHT22;10576;53.556;9.868;2023-05-10T01:11:37;13.00;99.90
20831;DHT22;10576;53.556;9.868;2023-05-10T01:14:03;12.30;99.90
20831;DHT22;10576;53.556;9.868;2023-05-10T01:16:34;13.20;99.90
20831;DHT22;10576;53.556;9.868;2023-05-10T01:19:01;13.20;99.90
20831;DHT22;10576;53.556;9.868;2023-05-10T01:21:58;13.00;99.90
20831;DHT22;10576;53.556;9.868;2023-05-10T01:32:35;13.10;99.90
20831;DHT22;10576;53.556;9.868;2023-05-10T01:40:35;12.90;99.90
20831;DHT22;10576;53.556;9.868;2023-05-10T01:43:04;12.90;99.90
20831;DHT22;10576;53.556;9.868;2023-05-10T01:46:05;13.10;99.90
20831;DHT22;10576;53.556;9.868;2023-05-10T01:48:57;12.70;99.90
20831;DHT22;10576;53.556;9.868;2023-05-10T01:51:26;12.90;99.90
20831;DHT22;10576;53.556;9.868;2023-05-10T01:54:02;12.90;99.90
20831;DHT22;10576;53.556;9.868;2023-05-10T01:56:32;12.50;99.90
20831;DHT22;10576;53.556;9.868;2023-05-10T01:59:00;12.90;99.90
20831;DHT22;10576;53.556;9.868;2023-05-10T02:01:31;11.90;99.90
20831;DHT22;10576;53.556;9.868;2023-05-10T02:03:58;12.90;99.90
20831;DHT22;10576;53.556;9.868;2023-05-10T02:06:25;12.60;99.90
20831;DHT22;10576;53.556;9.868;2023-05-10T02:08:52;12.50;99.90
20831;DHT22;10576;53.556;9.868;2023-05-10T02:11:19;12.70;99.90
20831;DHT22;10576;53.556;9.868;2023-05-10T02:13:47;12.80;99.90
20831;DHT22;10576;53.556;9.868;2023-05-10T02:16:14;12.50;99.90
20831;DHT22;10576;53.556;9.868;2023-05-10T02:18:41;12.50;99.90
20831;DHT22;10576;53.556;9.868;2023-05-10T02:21:08;12.60;99.90
20831;DHT22;10576;53.556;9.868;2023-05-10T02:23:34;12.60;99.90
20831;DHT22;10576;53.556;9.868;2023-05-10T02:26:01;12.40;99.90
20831;DHT22;10576;53.556;9.868;2023-05-10T02:28:28;12.50;99.90
20831;DHT22;10576;53.556;9.868;2023-05-10T02:30:55;12.40;99.90
20831;DHT22;10576;53.556;9.868;2023-05-10T02:33:22;12.30;99.90
20831;DHT22;10576;53.556;9.868;2023-05-10T02:35:48;12.30;99.90
20831;DHT22;10576;53.556;9.868;2023-05-10T02:38:15;12.40;99.90
20831;DHT22;10576;53.556;9.868;2023-05-10T02:40:41;12.30;99.90
20831;DHT22;10576;53.556;9.868;2023-05-10T02:43:12;12.20;99.90
20831;DHT22;10576;53.556;9.868;2023-05-10T02:45:39;12.30;99.90
20831;DHT22;10576;53.556;9.868;2023-05-10T02:48:05;12.50;99.90
20831;DHT22;10576;53.556;9.868;2023-05-10T02:50:33;12.30;99.90
20831;DHT22;10576;53.556;9.868;2023-05-10T02:53:09;12.20;99.90
20831;DHT22;10576;53.556;9.868;2023-05-10T02:55:39;12.40;99.90
20831;DHT22;10576;53.556;9.868;2023-05-10T02:58:05;12.30;99.90
20831;DHT22;10576;53.556;9.868;2023-05-10T03:00:31;12.40;99.90
20831;DHT22;10576;53.556;9.868;2023-05-10T03:02:57;12.40;99.90
20831;DHT22;10576;53.556;9.868;2023-05-10T03:05:23;14.10;99.90
20831;DHT22;10576;53.556;9.868;2023-05-10T03:07:49;12.20;99.90
20831;DHT22;10576;53.556;9.868;2023-05-10T03:10:15;12.40;99.90
20831;DHT22;10576;53.556;9.868;2023-05-10T03:15:47;12.40;99.90
20831;DHT22;10576;53.556;9.868;2023-05-10T03:18:22;12.20;99.90
20831;DHT22;10576;53.556;9.868;2023-05-10T03:20:51;12.30;99.90
20831;DHT22;10576;53.556;9.868;2023-05-10T03:25:44;12.30;99.90
20831;DHT22;10576;53.556;9.868;2023-05-10T03:28:12;12.10;99.90
20831;DHT22;10576;53.556;9.868;2023-05-10T03:30:41;12.10;99.90
20831;DHT22;10576;53.556;9.868;2023-05-10T03:33:07;12.20;99.90
20831;DHT22;10576;53.556;9.868;2023-05-10T03:35:33;12.30;99.90
20831;DHT22;10576;53.556;9.868;2023-05-10T03:37:58;12.30;99.90
20831;DHT22;10576;53.556;9.868;2023-05-10T03:40:25;12.30;99.90
20831;DHT22;10576;53.556;9.868;2023-05-10T03:42:51;11.80;99.90
20831;DHT22;10576;53.556;9.868;2023-05-10T03:45:16;12.10;99.90
20831;DHT22;10576;53.556;9.868;2023-05-10T03:47:42;12.00;99.90
20831;DHT22;10576;53.556;9.868;2023-05-10T03:50:08;12.00;99.90
20831;DHT22;10576;53.556;9.868;2023-05-10T03:52:34;12.20;99.90
20831;DHT22;10576;53.556;9.868;2023-05-10T03:54:59;12.00;99.90
20831;DHT22;10576;53.556;9.868;2023-05-10T03:57:25;12.10;99.90
20831;DHT22;10576;53.556;9.868;2023-05-10T03:59:50;12.20;99.90
20831;DHT22;10576;53.556;9.868;2023-05-10T04:02:16;12.30;99.90
20831;DHT22;10576;53.556;9.868;2023-05-10T04:04:42;12.00;99.90
20831;DHT22;10576;53.556;9.868;2023-05-10T04:07:07;12.10;99.90
20831;DHT22;10576;53.556;9.868;2023-05-10T04:09:35;12.30;99.90
20831;DHT22;10576;53.556;9.868;2023-05-10T04:12:00;12.00;99.90
20831;DHT22;10576;53.556;9.868;2023-05-10T04:14:27;11.90;99.90
20831;DHT22;10576;53.556;9.868;2023-05-10T04:16:53;12.00;99.90
20831;DHT22;10576;53.556;9.868;2023-05-10T04:19:19;12.00;99.90
20831;DHT22;10576;53.556;9.868;2023-05-10T04:21:45;12.20;99.90
20831;DHT22;10576;53.556;9.868;2023-05-10T04:24:10;11.90;99.90
20831;DHT22;10576;53.556;9.868;2023-05-10T04:26:36;12.00;99.90
20831;DHT22;10576;53.556;9.868;2023-05-10T04:29:02;12.10;99.90
20831;DHT22;10576;53.556;9.868;2023-05-10T04:31:27;12.00;99.90
20831;DHT22;10576;53.556;9.868;2023-05-10T04:33:53;12.10;99.90
20831;DHT22;10576;53.556;9.868;2023-05-10T04:36:19;12.00;99.90
20831;DHT22;10576;53.556;9.868;2023-05-10T04:38:44;11.90;99.90
20831;DHT22;10576;53.556;9.868;2023-05-10T04:41:11;12.00;99.90
20831;DHT22;10576;53.556;9.868;2023-05-10T04:43:37;12.10;99.90
20831;DHT22;10576;53.556;9.868;2023-05-10T04:46:04;12.30;99.90
20831;DHT22;10576;53.556;9.868;2023-05-10T04:48:29;12.20;99.90
20831;DHT22;10576;53.556;9.868;2023-05-10T04:50:55;12.20;99.90
20831;DHT22;10576;53.556;9.868;2023-05-10T04:53:21;12.10;99.90
20831;DHT22;10576;53.556;9.868;2023-05-10T04:55:47;12.40;99.90
20831;DHT22;10576;53.556;9.868;2023-05-10T04:58:13;12.30;99.90
20831;DHT22;10576;53.556;9.868;2023-05-10T05:00:39;12.30;99.90
20831;DHT22;10576;53.556;9.868;2023-05-10T05:03:04;12.30;99.90
20831;DHT22;10576;53.556;9.868;2023-05-10T05:05:30;12.40;99.90
20831;DHT22;10576;53.556;9.868;2023-05-10T05:07:56;12.20;99.90
20831;DHT22;10576;53.556;9.868;2023-05-10T05:10:22;12.30;99.90
20831;DHT22;10576;53.556;9.868;2023-05-10T05:12:47;12.50;99.90
20831;DHT22;10576;53.556;9.868;2023-05-10T05:15:13;12.90;99.90
20831;DHT22;10576;53.556;9.868;2023-05-10T05:17:40;12.60;99.90
20831;DHT22;10576;53.556;9.868;2023-05-10T05:20:06;12.70;99.90
20831;DHT22;10576;53.556;9.868;2023-05-10T05:22:32;12.90;99.90
20831;DHT22;10576;53.556;9.868;2023-05-10T05:24:58;13.10;99.90
20831;DHT22;10576;53.556;9.868;2023-05-10T05:27:24;13.10;99.90
20831;DHT22;10576;53.556;9.868;2023-05-10T05:29:55;13.60;99.90
20831;DHT22;10576;53.556;9.868;2023-05-10T05:32:21;13.50;99.90
20831;DHT22;10576;53.556;9.868;2023-05-10T05:34:47;13.60;99.90
20831;DHT22;10576;53.556;9.868;2023-05-10T05:37:14;13.80;99.90
20831;DHT22;10576;53.556;9.868;2023-05-10T05:39:40;13.80;99.90
20831;DHT22;10576;53.556;9.868;2023-05-10T05:42:05;13.50;99.90
20831;DHT22;10576;53.556;9.868;2023-05-10T05:46:57;13.50;99.90
20831;DHT22;10576;53.556;9.868;2023-05-10T05:51:49;13.80;99.90
20831;DHT22;10576;53.556;9.868;2023-05-10T05:56:41;14.20;99.90
20831;DHT22;10576;53.556;9.868;2023-05-10T06:01:33;14.00;99.90
20831;DHT22;10576;53.556;9.868;2023-05-10T06:06:25;13.90;99.90
20831;DHT22;10576;53.556;9.868;2023-05-10T06:11:17;13.80;99.90
20831;DHT22;10576;53.556;9.868;2023-05-10T06:13:42;13.70;99.90
20831;DHT22;10576;53.556;9.868;2023-05-10T06:16:08;14.00;99.90
20831;DHT22;10576;53.556;9.868;2023-05-10T06:21:00;14.10;99.90
20831;DHT22;10576;53.556;9.868;2023-05-10T06:23:25;14.20;99.90
20831;DHT22;10576;53.556;9.868;2023-05-10T06:25:52;14.00;99.90
20831;DHT22;10576;53.556;9.868;2023-05-10T06:28:17;14.40;99.90
20831;DHT22;10576;53.556;9.868;2023-05-10T06:30:43;14.50;99.90
20831;DHT22;10576;53.556;9.868;2023-05-10T06:35:35;14.40;99.90
20831;DHT22;10576;53.556;9.868;2023-05-10T06:40:28;14.40;99.90
20831;DHT22;10576;53.556;9.868;2023-05-10T06:42:53;14.30;99.90
20831;DHT22;10576;53.556;9.868;2023-05-10T06:45:19;14.60;99.90
20831;DHT22;10576;53.556;9.868;2023-05-10T06:47:45;14.60;99.90
20831;DHT22;10576;53.556;9.868;2023-05-10T06:50:11;15.00;99.90
20831;DHT22;10576;53.556;9.868;2023-05-10T06:52:37;14.80;99.90
20831;DHT22;10576;53.556;9.868;2023-05-10T06:55:04;14.80;99.90
20831;DHT22;10576;53.556;9.868;2023-05-10T06:59:59;15.00;99.90
20831;DHT22;10576;53.556;9.868;2023-05-10T07:04:51;15.60;99.90
20831;DHT22;10576;53.556;9.868;2023-05-10T07:09:44;15.30;99.90
20831;DHT22;10576;53.556;9.868;2023-05-10T07:12:10;15.60;99.90
20831;DHT22;10576;53.556;9.868;2023-05-10T07:14:35;15.40;99.90
20831;DHT22;10576;53.556;9.868;2023-05-10T07:17:01;15.80;99.90
20831;DHT22;10576;53.556;9.868;2023-05-10T07:19:27;15.70;99.90
20831;DHT22;10576;53.556;9.868;2023-05-10T07:21:54;15.80;99.90
20831;DHT22;10576;53.556;9.868;2023-05-10T07:24:20;15.70;99.90
20831;DHT22;10576;53.556;9.868;2023-05-10T07:26:46;16.20;99.90
20831;DHT22;10576;53.556;9.868;2023-05-10T07:29:11;16.20;99.90
20831;DHT22;10576;53.556;9.868;2023-05-10T07:31:37;16.10;99.90
20831;DHT22;10576;53.556;9.868;2023-05-10T07:34:03;16.00;99.90
20831;DHT22;10576;53.556;9.868;2023-05-10T07:36:28;16.20;99.90
20831;DHT22;10576;53.556;9.868;2023-05-10T07:38:54;16.10;99.90
20831;DHT22;10576;53.556;9.868;2023-05-10T07:41:20;16.00;99.90
20831;DHT22;10576;53.556;9.868;2023-05-10T07:43:46;15.90;99.90
20831;DHT22;10576;53.556;9.868;2023-05-10T07:46:12;16.40;99.90
20831;DHT22;10576;53.556;9.868;2023-05-10T07:48:37;16.10;99.90
20831;DHT22;10576;53.556;9.868;2023-05-10T07:51:03;16.40;99.90
20831;DHT22;10576;53.556;9.868;2023-05-10T07:53:29;16.40;99.90
20831;DHT22;10576;53.556;9.868;2023-05-10T07:55:57;16.70;99.90
20831;DHT22;10576;53.556;9.868;2023-05-10T07:58:26;16.60;99.90
20831;DHT22;10576;53.556;9.868;2023-05-10T08:00:52;16.40;99.90
20831;DHT22;10576;53.556;9.868;2023-05-10T08:03:17;16.50;99.90
20831;DHT22;10576;53.556;9.868;2023-05-10T08:05:43;16.50;99.90
20831;DHT22;10576;53.556;9.868;2023-05-10T08:08:09;16.50;99.90
20831;DHT22;10576;53.556;9.868;2023-05-10T08:10:34;16.50;99.90
20831;DHT22;10576;53.556;9.868;2023-05-10T08:13:00;16.60;99.90
20831;DHT22;10576;53.556;9.868;2023-05-10T08:15:26;16.20;99.90
20831;DHT22;10576;53.556;9.868;2023-05-10T08:17:52;16.50;99.90
20831;DHT22;10576;53.556;9.868;2023-05-10T08:20:17;16.50;99.90
20831;DHT22;10576;53.556;9.868;2023-05-10T08:22:45;16.50;99.90
20831;DHT22;10576;53.556;9.868;2023-05-10T08:25:11;16.70;99.90
20831;DHT22;10576;53.556;9.868;2023-05-10T08:27:36;17.10;99.90
20831;DHT22;10576;53.556;9.868;2023-05-10T08:30:02;16.80;99.90
20831;DHT22;10576;53.556;9.868;2023-05-10T08:32:28;17.00;99.90
20831;DHT22;10576;53.556;9.868;2023-05-10T08:34:54;16.80;99.90
20831;DHT22;10576;53.556;9.868;2023-05-10T08:37:22;16.90;99.90
20831;DHT22;10576;53.556;9.868;2023-05-10T08:39:48;16.80;99.90
20831;DHT22;10576;53.556;9.868;2023-05-10T08:42:16;16.80;99.90
20831;DHT22;10576;53.556;9.868;2023-05-10T08:44:45;16.90;99.90
20831;DHT22;10576;53.556;9.868;2023-05-10T08:47:15;17.00;99.90
20831;DHT22;10576;53.556;9.868;2023-05-10T08:49:41;16.80;99.90
20831;DHT22;10576;53.556;9.868;2023-05-10T08:54:34;16.90;99.90
20831;DHT22;10576;53.556;9.868;2023-05-10T08:57:00;16.70;99.90
20831;DHT22;10576;53.556;9.868;2023-05-10T08:59:26;16.60;99.90
20831;DHT22;10576;53.556;9.868;2023-05-10T09:01:54;16.60;99.90
20831;DHT22;10576;53.556;9.868;2023-05-10T09:04:21;16.60;99.90
20831;DHT22;10576;53.556;9.868;2023-05-10T09:06:46;16.90;99.90
20831;DHT22;10576;53.556;9.868;2023-05-10T09:09:12;16.80;99.90
20831;DHT22;10576;53.556;9.868;2023-05-10T09:11:38;16.60;99.90
20831;DHT22;10576;53.556;9.868;2023-05-10T09:14:04;16.90;99.90
20831;DHT22;10576;53.556;9.868;2023-05-10T09:16:30;16.70;99.90
20831;DHT22;10576;53.556;9.868;2023-05-10T09:18:56;16.50;99.90
20831;DHT22;10576;53.556;9.868;2023-05-10T09:21:21;16.60;99.90
20831;DHT22;10576;53.556;9.868;2023-05-10T09:23:47;16.80;99.90
20831;DHT22;10576;53.556;9.868;2023-05-10T09:26:15;16.70;99.90
20831;DHT22;10576;53.556;9.868;2023-05-10T09:28:58;16.70;99.90
20831;DHT22;10576;53.556;9.868;2023-05-10T09:33:51;16.10;99.90
20831;DHT22;10576;53.556;9.868;2023-05-10T09:36:17;16.30;99.90
20831;DHT22;10576;53.556;9.868;2023-05-10T09:38:50;16.00;99.90
20831;DHT22;10576;53.556;9.868;2023-05-10T09:41:21;15.90;99.90
20831;DHT22;10576;53.556;9.868;2023-05-10T09:43:47;16.10;99.90
20831;DHT22;10576;53.556;9.868;2023-05-10T09:46:13;16.10;99.90
20831;DHT22;10576;53.556;9.868;2023-05-10T09:48:42;16.00;99.90
20831;DHT22;10576;53.556;9.868;2023-05-10T09:51:08;16.00;99.90
20831;DHT22;10576;53.556;9.868;2023-05-10T09:53:33;15.80;99.90
20831;DHT22;10576;53.556;9.868;2023-05-10T09:55:59;15.90;99.90
20831;DHT22;10576;53.556;9.868;2023-05-10T09:58:25;15.90;99.90
20831;DHT22;10576;53.556;9.868;2023-05-10T10:00:51;15.50;99.90
20831;DHT22;10576;53.556;9.868;2023-05-10T10:03:19;15.10;99.90
20831;DHT22;10576;53.556;9.868;2023-05-10T10:05:46;15.10;99.90
20831;DHT22;10576;53.556;9.868;2023-05-10T10:08:13;15.00;99.90
20831;DHT22;10576;53.556;9.868;2023-05-10T10:10:39;15.00;99.90
20831;DHT22;10576;53.556;9.868;2023-05-10T10:13:09;14.90;99.90
20831;DHT22;10576;53.556;9.868;2023-05-10T10:15:35;15.00;99.90
20831;DHT22;10576;53.556;9.868;2023-05-10T10:18:01;14.90;99.90
20831;DHT22;10576;53.556;9.868;2023-05-10T10:20:29;14.70;99.90
20831;DHT22;10576;53.556;9.868;2023-05-10T10:22:54;15.00;99.90
20831;DHT22;10576;53.556;9.868;2023-05-10T10:25:21;14.60;99.90
20831;DHT22;10576;53.556;9.868;2023-05-10T10:33:29;14.70;99.90
20831;DHT22;10576;53.556;9.868;2023-05-10T10:35:59;15.00;99.90
20831;DHT22;10576;53.556;9.868;2023-05-10T10:38:25;14.80;99.90
20831;DHT22;10576;53.556;9.868;2023-05-10T10:41:27;14.90;99.90
20831;DHT22;10576;53.556;9.868;2023-05-10T10:52:26;14.80;99.90
20831;DHT22;10576;53.556;9.868;2023-05-10T10:55:04;14.80;99.90
20831;DHT22;10576;53.556;9.868;2023-05-10T11:03:09;14.60;99.90
20831;DHT22;10576;53.556;9.868;2023-05-10T11:05:43;14.40;99.90
20831;DHT22;10576;53.556;9.868;2023-05-10T11:08:11;14.60;99.90
20831;DHT22;10576;53.556;9.868;2023-05-10T11:10:37;14.50;99.90
20831;DHT22;10576;53.556;9.868;2023-05-10T11:13:08;14.50;99.90
20831;DHT22;10576;53.556;9.868;2023-05-10T11:15:35;14.50;99.90
20831;DHT22;10576;53.556;9.868;2023-05-10T11:18:23;14.50;99.90
20831;DHT22;10576;53.556;9.868;2023-05-10T11:23:21;14.40;99.90
20831;DHT22;10576;53.556;9.868;2023-05-10T11:25:48;14.20;99.90
20831;DHT22;10576;53.556;9.868;2023-05-10T11:28:17;14.50;99.90
20831;DHT22;10576;53.556;9.868;2023-05-10T11:30:43;14.10;99.90
20831;DHT22;10576;53.556;9.868;2023-05-10T11:33:15;14.20;99.90
20831;DHT22;10576;53.556;9.868;2023-05-10T11:35:41;14.50;99.90
20831;DHT22;10576;53.556;9.868;2023-05-10T11:38:08;14.50;99.90
20831;DHT22;10576;53.556;9.868;2023-05-10T11:40:34;14.50;99.90
20831;DHT22;10576;53.556;9.868;2023-05-10T11:43:00;14.70;99.90
20831;DHT22;10576;53.556;9.868;2023-05-10T11:45:26;14.30;99.90
20831;DHT22;10576;53.556;9.868;2023-05-10T11:47:54;14.30;99.90
20831;DHT22;10576;53.556;9.868;2023-05-10T11:50:20;14.50;99.90
20831;DHT22;10576;53.556;9.868;2023-05-10T11:52:51;14.70;99.90
20831;DHT22;10576;53.556;9.868;2023-05-10T11:55:16;14.50;99.90
20831;DHT22;10576;53.556;9.868;2023-05-10T12:00:12;14.70;99.90
20831;DHT22;10576;53.556;9.868;2023-05-10T12:02:37;14.60;99.90
20831;DHT22;10576;53.556;9.868;2023-05-10T12:05:04;14.70;99.90
20831;DHT22;10576;53.556;9.868;2023-05-10T12:07:30;14.70;99.90
20831;DHT22;10576;53.556;9.868;2023-05-10T12:10:10;14.40;99.90
20831;DHT22;10576;53.556;9.868;2023-05-10T12:12:43;14.50;99.90
20831;DHT22;10576;53.556;9.868;2023-05-10T12:15:19;14.90;99.90
20831;DHT22;10576;53.556;9.868;2023-05-10T12:17:45;14.60;99.90
20831;DHT22;10576;53.556;9.868;2023-05-10T12:25:08;14.90;99.90
20831;DHT22;10576;53.556;9.868;2023-05-10T12:27:34;14.80;99.90
20831;DHT22;10576;53.556;9.868;2023-05-10T12:30:00;14.80;99.90
20831;DHT22;10576;53.556;9.868;2023-05-10T12:32:39;14.90;99.90
20831;DHT22;10576;53.556;9.868;2023-05-10T12:35:04;14.90;99.90
20831;DHT22;10576;53.556;9.868;2023-05-10T12:37:31;15.30;99.90
20831;DHT22;10576;53.556;9.868;2023-05-10T12:40:01;15.10;99.90
20831;DHT22;10576;53.556;9.868;2023-05-10T12:42:26;15.20;99.90
20831;DHT22;10576;53.556;9.868;2023-05-10T12:44:55;15.40;99.90
20831;DHT22;10576;53.556;9.868;2023-05-10T12:47:21;15.20;99.90
20831;DHT22;10576;53.556;9.868;2023-05-10T12:49:47;15.30;99.90
20831;DHT22;10576;53.556;9.868;2023-05-10T12:52:13;15.70;99.90
20831;DHT22;10576;53.556;9.868;2023-05-10T12:54:38;15.90;99.90
20831;DHT22;10576;53.556;9.868;2023-05-10T12:57:04;15.70;99.90
20831;DHT22;10576;53.556;9.868;2023-05-10T12:59:30;15.80;99.90
20831;DHT22;10576;53.556;9.868;2023-05-10T13:01:57;15.90;99.90
20831;DHT22;10576;53.556;9.868;2023-05-10T13:04:22;16.00;99.90
20831;DHT22;10576;53.556;9.868;2023-05-10T13:06:48;16.00;99.90
20831;DHT22;10576;53.556;9.868;2023-05-10T13:09:14;15.90;99.90
20831;DHT22;10576;53.556;9.868;2023-05-10T13:11:40;16.00;99.90
20831;DHT22;10576;53.556;9.868;2023-05-10T13:14:06;16.30;99.90
20831;DHT22;10576;53.556;9.868;2023-05-10T13:16:32;16.30;99.90
20831;DHT22;10576;53.556;9.868;2023-05-10T13:18:58;16.20;99.90
20831;DHT22;10576;53.556;9.868;2023-05-10T13:21:23;16.30;99.90
20831;DHT22;10576;53.556;9.868;2023-05-10T13:23:50;16.20;99.90
20831;DHT22;10576;53.556;9.868;2023-05-10T13:26:16;16.20;99.90
20831;DHT22;10576;53.556;9.868;2023-05-10T13:28:41;16.40;99.90
20831;DHT22;10576;53.556;9.868;2023-05-10T13:31:07;16.20;99.90
20831;DHT22;10576;53.556;9.868;2023-05-10T13:33:33;16.50;99.90
20831;DHT22;10576;53.556;9.868;2023-05-10T13:35:58;16.10;99.90
20831;DHT22;10576;53.556;9.868;2023-05-10T13:38:24;16.50;99.90
20831;DHT22;10576;53.556;9.868;2023-05-10T13:40:50;16.30;99.90
20831;DHT22;10576;53.556;9.868;2023-05-10T13:43:18;16.20;99.90
20831;DHT22;10576;53.556;9.868;2023-05-10T13:45:44;16.00;99.90
20831;DHT22;10576;53.556;9.868;2023-05-10T13:50:35;16.10;99.90
20831;DHT22;10576;53.556;9.868;2023-05-10T13:53:01;16.40;99.90
20831;DHT22;10576;53.556;9.868;2023-05-10T13:55:27;16.90;99.90
20831;DHT22;10576;53.556;9.868;2023-05-10T13:57:52;16.70;99.90
20831;DHT22;10576;53.556;9.868;2023-05-10T14:00:18;17.10;99.90
20831;DHT22;10576;53.556;9.868;2023-05-10T14:02:44;16.80;99.90
20831;DHT22;10576;53.556;9.868;2023-05-10T14:05:09;16.60;99.90
20831;DHT22;10576;53.556;9.868;2023-05-10T14:07:35;16.80;99.90
20831;DHT22;10576;53.556;9.868;2023-05-10T14:10:01;16.80;99.90
20831;DHT22;10576;53.556;9.868;2023-05-10T14:12:27;16.90;99.90
20831;DHT22;10576;53.556;9.868;2023-05-10T14:14:53;16.60;99.90
20831;DHT22;10576;53.556;9.868;2023-05-10T14:17:18;16.60;99.90
20831;DHT22;10576;53.556;9.868;2023-05-10T14:19:44;16.70;99.90
20831;DHT22;10576;53.556;9.868;2023-05-10T14:22:10;16.60;99.90
20831;DHT22;10576;53.556;9.868;2023-05-10T14:24:37;16.50;99.90
20831;DHT22;10576;53.556;9.868;2023-05-10T14:27:03;16.30;99.90
20831;DHT22;10576;53.556;9.868;2023-05-10T14:29:28;16.40;99.90
20831;DHT22;10576;53.556;9.868;2023-05-10T14:31:54;16.00;99.90
20831;DHT22;10576;53.556;9.868;2023-05-10T14:34:20;16.40;99.90
20831;DHT22;10576;53.556;9.868;2023-05-10T14:36:45;16.60;99.90
20831;DHT22;10576;53.556;9.868;2023-05-10T14:39:11;16.60;99.90
20831;DHT22;10576;53.556;9.868;2023-05-10T14:41:38;16.60;99.90
20831;DHT22;10576;53.556;9.868;2023-05-10T14:44:06;16.60;99.90
20831;DHT22;10576;53.556;9.868;2023-05-10T14:46:32;16.40;99.90
20831;DHT22;10576;53.556;9.868;2023-05-10T14:48:57;16.70;99.90
20831;DHT22;10576;53.556;9.868;2023-05-10T14:51:23;16.80;99.90
20831;DHT22;10576;53.556;9.868;2023-05-10T14:53:49;16.90;99.90
20831;DHT22;10576;53.556;9.868;2023-05-10T14:56:15;16.60;99.90
20831;DHT22;10576;53.556;9.868;2023-05-10T14:58:40;16.50;99.90
20831;DHT22;10576;53.556;9.868;2023-05-10T15:01:06;16.50;99.90
20831;DHT22;10576;53.556;9.868;2023-05-10T15:03:31;16.40;99.90
20831;DHT22;10576;53.556;9.868;2023-05-10T15:05:57;16.90;99.90
20831;DHT22;10576;53.556;9.868;2023-05-10T15:08:23;16.50;99.90
20831;DHT22;10576;53.556;9.868;2023-05-10T15:10:50;16.70;99.90
20831;DHT22;10576;53.556;9.868;2023-05-10T15:13:16;16.70;99.90
20831;DHT22;10576;53.556;9.868;2023-05-10T15:15:42;17.00;99.90
20831;DHT22;10576;53.556;9.868;2023-05-10T15:18:09;17.10;99.90
20831;DHT22;10576;53.556;9.868;2023-05-10T15:20:34;16.50;99.90
20831;DHT22;10576;53.556;9.868;2023-05-10T15:23:00;16.70;99.90
20831;DHT22;10576;53.556;9.868;2023-05-10T15:25:26;16.90;99.90
20831;DHT22;10576;53.556;9.868;2023-05-10T15:27:53;16.80;99.90
20831;DHT22;10576;53.556;9.868;2023-05-10T15:30:18;16.70;99.90
20831;DHT22;10576;53.556;9.868;2023-05-10T15:32:44;16.70;99.90
20831;DHT22;10576;53.556;9.868;2023-05-10T15:35:10;16.50;99.90
20831;DHT22;10576;53.556;9.868;2023-05-10T15:37:36;16.40;99.90
20831;DHT22;10576;53.556;9.868;2023-05-10T15:40:02;16.40;99.90
20831;DHT22;10576;53.556;9.868;2023-05-10T15:42:29;16.40;99.90
20831;DHT22;10576;53.556;9.868;2023-05-10T15:44:58;16.10;99.90
20831;DHT22;10576;53.556;9.868;2023-05-10T15:47:25;16.10;99.90
20831;DHT22;10576;53.556;9.868;2023-05-10T15:49:51;16.10;99.90
20831;DHT22;10576;53.556;9.868;2023-05-10T15:52:16;15.70;99.90
20831;DHT22;10576;53.556;9.868;2023-05-10T15:54:43;15.20;99.90
20831;DHT22;10576;53.556;9.868;2023-05-10T15:57:08;15.50;99.90
20831;DHT22;10576;53.556;9.868;2023-05-10T15:59:34;15.30;99.90
20831;DHT22;10576;53.556;9.868;2023-05-10T16:02:00;15.20;99.90
20831;DHT22;10576;53.556;9.868;2023-05-10T16:04:26;15.80;99.90
20831;DHT22;10576;53.556;9.868;2023-05-10T16:06:52;15.60;99.90
20831;DHT22;10576;53.556;9.868;2023-05-10T16:09:17;15.40;99.90
20831;DHT22;10576;53.556;9.868;2023-05-10T16:11:43;15.50;99.90
20831;DHT22;10576;53.556;9.868;2023-05-10T16:16:35;15.60;99.90
20831;DHT22;10576;53.556;9.868;2023-05-10T16:19:01;15.70;99.90
20831;DHT22;10576;53.556;9.868;2023-05-10T16:21:29;15.70;99.90
20831;DHT22;10576;53.556;9.868;2023-05-10T16:23:59;15.80;99.90
20831;DHT22;10576;53.556;9.868;2023-05-10T16:26:25;15.80;99.90
20831;DHT22;10576;53.556;9.868;2023-05-10T16:28:51;15.80;99.90
20831;DHT22;10576;53.556;9.868;2023-05-10T16:31:16;15.50;99.90
20831;DHT22;10576;53.556;9.868;2023-05-10T16:33:43;15.80;99.90
20831;DHT22;10576;53.556;9.868;2023-05-10T16:36:09;15.70;99.90
20831;DHT22;10576;53.556;9.868;2023-05-10T16:38:35;15.50;99.90
20831;DHT22;10576;53.556;9.868;2023-05-10T16:41:01;15.50;99.90
20831;DHT22;10576;53.556;9.868;2023-05-10T16:43:28;15.50;99.90
20831;DHT22;10576;53.556;9.868;2023-05-10T16:45:53;15.70;99.90
20831;DHT22;10576;53.556;9.868;2023-05-10T16:48:19;15.60;99.90
20831;DHT22;10576;53.556;9.868;2023-05-10T16:50:45;15.90;99.90
20831;DHT22;10576;53.556;9.868;2023-05-10T16:53:11;15.70;99.90
20831;DHT22;10576;53.556;9.868;2023-05-10T16:55:36;15.80;99.90